Time;durP1;ratioP1;P1;durP2;ratioP2;P2;SDS_P1;SDS_P2;PMS_P1;PMS_P2;Temp;Humidity;BMP_temperature;BMP_pressure;BME280_temperature;BME280_humidity;BME280_pressure;Samples;Min_cycle;Max_cycle;Signal;HPM_P1;HPM_P2
2022/11/28 00:01:33;;;;;;;49.73;38.70;;;13.60;99.60;;;;;;4591177;19;20038;-22
2022/11/28 00:03:04;;;;;;;48.47;35.93;;;13.60;99.60;;;;;;4589851;19;20006;-23
2022/11/28 00:04:35;;;;;;;46.17;36.03;;;13.60;99.60;;;;;;4590114;19;20014;-22
2022/11/28 00:06:07;;;;;;;45.20;34.43;;;13.60;99.50;;;;;;4589400;19;20017;-23
2022/11/28 00:07:39;;;;;;;43.33;34.77;;;13.60;99.50;;;;;;4590404;19;20011;-22
2022/11/28 00:09:11;;;;;;;42.55;33.22;;;13.60;99.40;;;;;;4590923;19;20010;-21
2022/11/28 00:10:43;;;;;;;42.00;33.80;;;13.60;99.40;;;;;;4590599;19;20012;-22
2022/11/28 00:12:14;;;;;;;40.80;31.27;;;13.60;99.30;;;;;;4590723;19;20006;-22
2022/11/28 00:13:46;;;;;;;38.10;31.30;;;13.50;99.20;;;;;;4590108;19;20021;-22
2022/11/28 00:15:17;;;;;;;35.70;29.43;;;13.60;99.20;;;;;;4590409;19;20010;-22
2022/11/28 00:16:50;;;;;;;34.63;29.30;;;13.50;99.00;;;;;;4590781;19;20075;-24
2022/11/28 00:18:22;;;;;;;39.50;32.03;;;13.50;99.00;;;;;;4590647;19;20135;-22
2022/11/28 00:19:54;;;;;;;35.92;29.75;;;13.50;98.90;;;;;;4590863;19;20014;-22
2022/11/28 00:21:30;;;;;;;36.47;29.33;;;13.50;98.90;;;;;;4590552;19;20018;-22
2022/11/28 00:23:00;;;;;;;39.90;30.83;;;13.50;98.90;;;;;;4590548;19;20523;-22
2022/11/28 00:24:33;;;;;;;40.23;31.47;;;13.50;98.80;;;;;;4590771;19;20018;-23
2022/11/28 00:26:16;;;;;;;36.10;29.70;;;13.50;98.80;;;;;;4590969;19;20453;-23
2022/11/28 00:27:48;;;;;;;39.30;30.33;;;13.50;98.80;;;;;;4590138;19;20010;-25
2022/11/28 00:29:21;;;;;;;37.63;29.83;;;13.50;98.80;;;;;;4589972;19;20029;-22
2022/11/28 00:30:52;;;;;;;38.55;30.50;;;13.50;98.80;;;;;;4590312;19;20014;-24
2022/11/28 00:32:23;;;;;;;38.72;29.98;;;13.50;98.80;;;;;;4590865;19;20034;-22
2022/11/28 00:33:56;;;;;;;42.93;30.93;;;13.50;98.80;;;;;;4588972;19;20011;-22
2022/11/28 00:35:27;;;;;;;37.65;29.35;;;13.50;98.80;;;;;;4590495;19;20011;-22
2022/11/28 00:36:59;;;;;;;36.75;30.33;;;13.50;98.80;;;;;;4589408;19;20006;-22
2022/11/28 00:38:31;;;;;;;33.70;28.33;;;13.50;98.80;;;;;;4590153;19;20019;-23
2022/11/28 00:40:04;;;;;;;34.60;27.70;;;13.50;98.70;;;;;;4590139;19;20325;-22
2022/11/28 00:41:37;;;;;;;34.33;28.47;;;13.50;98.70;;;;;;4590321;19;20016;-23
2022/11/28 00:43:10;;;;;;;35.43;28.13;;;13.50;98.70;;;;;;4590743;19;20002;-22
2022/11/28 00:44:42;;;;;;;35.20;28.47;;;13.50;98.60;;;;;;4590211;19;20376;-22
2022/11/28 00:46:15;;;;;;;34.40;28.43;;;13.50;98.60;;;;;;4590164;19;20006;-22
2022/11/28 00:47:48;;;;;;;;;;;13.50;98.60;;;;;;4591208;19;20472;-22
2022/11/28 00:49:18;;;;;;;33.28;26.60;;;13.50;98.50;;;;;;4590536;19;19977;-22
2022/11/28 00:50:49;;;;;;;32.33;26.23;;;13.50;98.50;;;;;;4590169;19;20204;-22
2022/11/28 00:52:22;;;;;;;33.97;27.97;;;13.50;98.40;;;;;;4588803;19;20044;-22
2022/11/28 00:53:53;;;;;;;33.63;27.80;;;13.50;98.40;;;;;;4589818;19;20038;-22
2022/11/28 00:55:26;;;;;;;32.33;27.00;;;13.50;98.40;;;;;;4589426;19;20336;-22
2022/11/28 00:56:58;;;;;;;35.37;29.43;;;13.50;98.40;;;;;;4589396;19;20018;-21
2022/11/28 00:58:33;;;;;;;35.47;28.93;;;13.50;98.40;;;;;;4589287;19;20018;-21
2022/11/28 01:00:05;;;;;;;;;;;13.50;98.30;;;;;;4591056;19;20023;-21
2022/11/28 01:01:42;;;;;;;39.08;29.85;;;13.50;98.30;;;;;;4589554;19;20329;-22
2022/11/28 01:03:14;;;;;;;39.23;30.30;;;13.50;98.40;;;;;;4589521;19;20499;-22
2022/11/28 01:04:45;;;;;;;38.92;31.73;;;13.50;98.40;;;;;;4588439;19;20010;-22
2022/11/28 01:06:27;;;;;;;34.72;29.65;;;13.50;98.40;;;;;;4589429;19;20007;-21
2022/11/28 01:07:58;;;;;;;;;;;13.50;98.40;;;;;;4591598;19;20094;-22
2022/11/28 01:09:29;;;;;;;39.77;31.60;;;13.50;98.30;;;;;;4589334;19;19997;-22
2022/11/28 01:11:02;;;;;;;38.53;31.17;;;13.50;98.40;;;;;;4589618;19;20475;-23
2022/11/28 01:12:34;;;;;;;39.90;32.60;;;13.50;98.40;;;;;;4589306;19;20017;-22
2022/11/28 01:14:06;;;;;;;35.73;30.53;;;13.50;98.40;;;;;;4588932;19;20070;-23
2022/11/28 01:15:40;;;;;;;37.23;31.17;;;13.50;98.40;;;;;;4588248;19;20021;-22
2022/11/28 01:17:12;;;;;;;39.60;32.07;;;13.50;98.40;;;;;;4588400;19;20066;-22
2022/11/28 01:18:44;;;;;;;39.57;31.10;;;13.50;98.30;;;;;;4589021;19;20018;-22
2022/11/28 01:20:16;;;;;;;37.15;30.98;;;13.50;98.30;;;;;;4589653;19;20029;-22
2022/11/28 01:21:50;;;;;;;37.77;31.17;;;13.50;98.40;;;;;;4589505;19;20367;-23
2022/11/28 01:23:22;;;;;;;37.07;30.37;;;13.50;98.30;;;;;;4589190;19;20080;-23
2022/11/28 01:24:54;;;;;;;38.27;31.33;;;13.50;98.30;;;;;;4589359;19;20011;-22
2022/11/28 01:26:27;;;;;;;37.23;31.10;;;13.50;98.30;;;;;;4589888;19;20006;-21
2022/11/28 01:27:58;;;;;;;;;;;13.50;98.30;;;;;;4590326;19;20006;-23
2022/11/28 01:29:29;;;;;;;37.55;30.77;;;13.50;98.20;;;;;;4589259;19;20264;-21
2022/11/28 01:31:08;;;;;;;37.53;30.87;;;13.50;98.20;;;;;;4589336;19;20054;-22
2022/11/28 01:32:41;;;;;;;38.60;32.63;;;13.50;98.20;;;;;;4589322;19;20039;-23
2022/11/28 01:34:14;;;;;;;36.47;30.60;;;13.50;98.20;;;;;;4588290;19;20014;-22
2022/11/28 01:35:56;;;;;;;37.13;31.80;;;13.40;98.10;;;;;;4589343;19;20039;-22
2022/11/28 01:37:30;;;;;;;36.85;30.63;;;13.40;98.10;;;;;;4589689;19;20018;-22
2022/11/28 01:39:03;;;;;;;34.40;29.43;;;13.50;98.10;;;;;;4588041;19;20022;-22
2022/11/28 01:40:34;;;;;;;36.05;30.38;;;13.40;98.00;;;;;;4588432;19;20070;-24
2022/11/28 01:42:05;;;;;;;36.88;30.33;;;13.40;98.00;;;;;;4593311;19;20006;-22
2022/11/28 01:43:58;;;;;;;38.37;31.80;;;13.50;98.00;;;;;;4594058;19;20018;-22
2022/11/28 01:45:31;;;;;;;33.60;29.90;;;13.40;98.00;;;;;;4592860;19;20009;-24
2022/11/28 01:47:04;;;;;;;38.27;32.13;;;13.40;98.00;;;;;;4593275;19;20010;-21
2022/11/28 01:48:38;;;;;;;33.92;30.20;;;13.40;97.90;;;;;;4593547;19;20010;-22
2022/11/28 01:50:09;;;;;;;39.07;32.03;;;13.40;97.90;;;;;;4593889;19;20014;-22
2022/11/28 01:51:45;;;;;;;40.22;33.75;;;13.40;97.90;;;;;;4592404;19;20002;-22
2022/11/28 01:53:16;;;;;;;37.87;32.33;;;13.40;97.90;;;;;;4592803;19;20014;-22
2022/11/28 01:54:51;;;;;;;34.90;30.77;;;13.40;97.90;;;;;;4592527;19;20480;-22
2022/11/28 01:56:25;;;;;;;37.63;32.43;;;13.40;97.90;;;;;;4592540;19;20026;-22
2022/11/28 01:57:58;;;;;;;36.13;31.27;;;13.40;97.90;;;;;;4593298;19;20024;-23
2022/11/28 01:59:34;;;;;;;37.10;32.20;;;13.40;97.80;;;;;;4592964;19;20341;-21
2022/11/28 02:01:07;;;;;;;35.93;32.03;;;13.40;97.80;;;;;;4592261;19;20018;-21
2022/11/28 02:02:41;;;;;;;37.37;32.37;;;13.40;97.80;;;;;;4592661;19;20329;-22
2022/11/28 02:04:13;;;;;;;38.47;33.83;;;13.40;97.80;;;;;;4592116;19;20125;-22
2022/11/28 02:05:47;;;;;;;34.70;31.03;;;13.40;97.70;;;;;;4591798;19;20017;-22
2022/11/28 02:07:19;;;;;;;36.67;32.17;;;13.40;97.70;;;;;;4592334;19;20541;-22
2022/11/28 02:08:52;;;;;;;35.60;31.73;;;13.40;97.70;;;;;;4591657;19;20015;-22
2022/11/28 02:10:52;;;;;;;37.63;32.33;;;13.40;97.70;;;;;;4593090;19;20010;-21
2022/11/28 02:12:49;;;;;;;36.70;31.83;;;13.40;97.70;;;;;;4591009;19;20487;-22
2022/11/28 02:14:33;;;;;;;35.23;30.80;;;13.40;97.70;;;;;;4589545;19;20023;-22
2022/11/28 02:16:16;;;;;;;33.97;30.10;;;13.40;97.60;;;;;;4590609;19;20018;-22
2022/11/28 02:18:06;;;;;;;36.93;30.13;;;13.40;97.50;;;;;;4590740;19;20433;-21
2022/11/28 02:20:01;;;;;;;34.85;29.15;;;13.40;97.60;;;;;;4591144;19;20030;-22
2022/11/28 02:21:48;;;;;;;34.73;28.43;;;13.40;97.50;;;;;;4590552;19;20354;-22
2022/11/28 02:23:20;;;;;;;33.27;28.70;;;13.40;97.50;;;;;;4590399;19;20023;-23
2022/11/28 02:24:54;;;;;;;33.35;28.65;;;13.40;97.40;;;;;;4591003;19;20014;-23
2022/11/28 02:26:59;;;;;;;33.60;27.73;;;13.40;97.40;;;;;;4590391;19;20014;-22
2022/11/28 02:28:47;;;;;;;33.37;28.43;;;13.40;97.40;;;;;;4590369;19;20015;-21
2022/11/28 02:30:44;;;;;;;32.77;28.90;;;13.40;97.40;;;;;;4590329;19;20019;-22
2022/11/28 02:33:04;;;;;;;34.97;29.60;;;13.40;97.40;;;;;;4590382;19;20081;-21
2022/11/28 02:34:45;;;;;;;32.60;28.63;;;13.40;97.30;;;;;;4588673;19;20047;-22
2022/11/28 02:36:33;;;;;;;32.10;27.43;;;13.40;97.30;;;;;;4589989;19;20018;-22
2022/11/28 02:38:21;;;;;;;33.77;29.93;;;13.40;97.30;;;;;;4590580;19;20002;-22
2022/11/28 02:40:02;;;;;;;32.20;27.77;;;13.40;97.20;;;;;;4589999;19;20010;-22
2022/11/28 02:41:47;;;;;;;34.03;28.93;;;13.40;97.20;;;;;;4590360;19;20401;-25
2022/11/28 02:43:46;;;;;;;33.33;29.43;;;13.40;97.10;;;;;;4590250;19;20011;-24
2022/11/28 02:45:28;;;;;;;31.90;27.70;;;13.40;97.10;;;;;;4589859;19;20018;-23
2022/11/28 02:47:23;;;;;;;33.37;27.20;;;13.40;97.10;;;;;;4590169;19;20528;-22
2022/11/28 02:49:02;;;;;;;33.50;28.67;;;13.40;97.00;;;;;;4590113;19;20117;-22
2022/11/28 02:50:41;;;;;;;34.33;28.87;;;13.40;97.00;;;;;;4590379;19;20400;-21
2022/11/28 02:52:37;;;;;;;32.13;27.67;;;13.40;97.00;;;;;;4589543;19;20015;-23
2022/11/28 02:54:10;;;;;;;34.87;27.77;;;13.40;96.90;;;;;;4589342;19;20452;-22
2022/11/28 02:55:42;;;;;;;32.17;27.33;;;13.40;97.00;;;;;;4589706;19;20010;-24
2022/11/28 02:57:14;;;;;;;33.20;28.57;;;13.40;97.00;;;;;;4589528;19;20011;-22
2022/11/28 02:58:46;;;;;;;33.17;27.63;;;13.40;96.90;;;;;;4589823;19;20011;-22
2022/11/28 03:00:23;;;;;;;32.10;27.73;;;13.40;96.90;;;;;;4590525;19;20037;-22
2022/11/28 03:01:54;;;;;;;32.10;27.17;;;13.40;96.90;;;;;;4589680;19;20022;-22
2022/11/28 03:03:37;;;;;;;32.63;28.43;;;13.40;96.90;;;;;;4588945;19;20148;-22
2022/11/28 03:05:15;;;;;;;32.17;28.17;;;13.40;96.90;;;;;;4589388;19;20019;-22
2022/11/28 03:07:15;;;;;;;33.00;28.07;;;13.40;96.90;;;;;;4589763;19;20503;-22
2022/11/28 03:09:09;;;;;;;30.23;26.20;;;13.40;96.80;;;;;;4589431;19;20013;-22
2022/11/28 03:10:50;;;;;;;31.30;27.77;;;13.40;96.80;;;;;;4589602;19;20011;-24
2022/11/28 03:12:50;;;;;;;32.67;28.10;;;13.40;96.80;;;;;;4589369;19;20013;-22
2022/11/28 03:14:45;;;;;;;33.80;28.05;;;13.40;96.80;;;;;;4588172;19;20410;-21
2022/11/28 03:16:33;;;;;;;33.50;27.30;;;13.40;96.90;;;;;;4589090;19;20014;-23
2022/11/28 03:18:10;;;;;;;35.33;28.50;;;13.40;96.90;;;;;;4589137;19;20022;-22
2022/11/28 03:20:08;;;;;;;34.63;29.57;;;13.40;96.90;;;;;;4589134;19;20516;-22
2022/11/28 03:22:03;;;;;;;33.70;29.40;;;13.40;96.80;;;;;;4589065;19;20011;-22
2022/11/28 03:23:47;;;;;;;35.27;28.27;;;13.40;96.80;;;;;;4589120;19;20010;-21
2022/11/28 03:25:21;;;;;;;32.63;27.77;;;13.40;96.90;;;;;;4589206;19;20011;-22
2022/11/28 03:26:55;;;;;;;30.07;26.87;;;13.40;96.80;;;;;;4589056;19;20011;-22
2022/11/28 03:28:34;;;;;;;30.87;26.73;;;13.40;96.80;;;;;;4589070;19;20007;-22
2022/11/28 03:30:45;;;;;;;30.67;26.03;;;13.40;96.80;;;;;;4589443;19;20026;-23
2022/11/28 03:32:22;;;;;;;30.00;26.23;;;13.40;96.70;;;;;;4588871;19;20350;-22
2022/11/28 03:33:55;;;;;;;28.80;24.87;;;13.40;96.70;;;;;;4587841;19;20018;-22
2022/11/28 03:35:28;;;;;;;29.10;25.93;;;13.40;96.70;;;;;;4588715;19;20015;-22
2022/11/28 03:37:15;;;;;;;30.90;26.93;;;13.40;96.70;;;;;;4588735;19;20059;-22
2022/11/28 03:38:53;;;;;;;30.13;26.47;;;13.40;96.70;;;;;;4588754;19;20028;-22
2022/11/28 03:40:32;;;;;;;32.63;27.07;;;13.40;96.90;;;;;;4588624;19;20006;-22
2022/11/28 03:42:13;;;;;;;29.50;25.77;;;13.40;96.70;;;;;;4589595;19;20006;-22
2022/11/28 03:43:48;;;;;;;;;;;13.40;96.70;;;;;;4589629;19;20017;-24
2022/11/28 03:45:31;;;;;;;29.37;25.20;;;13.40;96.60;;;;;;4588225;19;19982;-22
2022/11/28 03:47:04;;;;;;;29.70;26.27;;;13.40;96.70;;;;;;4588580;19;20551;-22
2022/11/28 03:48:40;;;;;;;30.33;26.53;;;13.40;96.70;;;;;;4588976;19;20014;-22
2022/11/28 03:50:19;;;;;;;31.53;27.87;;;13.40;96.70;;;;;;4588653;19;20007;-22
2022/11/28 03:52:02;;;;;;;29.30;25.07;;;13.40;96.70;;;;;;4588270;19;20015;-21
2022/11/28 03:54:07;;;;;;;31.25;26.33;;;13.40;96.70;;;;;;4588535;19;20010;-22
2022/11/28 03:55:44;;;;;;;31.07;27.03;;;13.40;96.60;;;;;;4588875;19;20023;-21
2022/11/28 03:57:34;;;;;;;32.30;27.47;;;13.40;96.70;;;;;;4588813;19;20021;-22
2022/11/28 03:59:10;;;;;;;32.93;29.27;;;13.40;96.60;;;;;;4589253;19;19999;-21
2022/11/28 04:01:10;;;;;;;29.83;26.63;;;13.40;96.60;;;;;;4589390;19;20045;-22
2022/11/28 04:03:19;;;;;;;35.53;29.17;;;13.40;96.60;;;;;;4588834;19;20011;-22
2022/11/28 04:05:13;;;;;;;33.27;28.03;;;13.40;96.60;;;;;;4588312;19;20006;-23
2022/11/28 04:06:57;;;;;;;34.30;28.30;;;13.40;96.70;;;;;;4588440;19;20018;-22
2022/11/28 04:08:35;;;;;;;35.03;28.60;;;13.40;96.70;;;;;;4588335;19;20011;-22
2022/11/28 04:10:12;;;;;;;35.63;29.47;;;13.40;96.60;;;;;;4589513;19;20042;-24
2022/11/28 04:11:53;;;;;;;35.33;28.80;;;13.40;96.70;;;;;;4590459;19;20103;-22
2022/11/28 04:13:34;;;;;;;38.33;29.45;;;13.40;96.80;;;;;;4591186;19;19998;-22
2022/11/28 04:15:10;;;;;;;36.07;29.73;;;13.40;96.80;;;;;;4589691;19;20468;-22
2022/11/28 04:16:56;;;;;;;36.20;30.53;;;13.40;96.70;;;;;;4589310;19;20011;-22
2022/11/28 04:18:30;;;;;;;36.23;30.30;;;13.40;96.80;;;;;;4589596;19;20022;-21
2022/11/28 04:20:12;;;;;;;35.90;28.87;;;13.40;96.70;;;;;;4589305;19;20377;-22
2022/11/28 04:22:03;;;;;;;35.93;28.87;;;13.40;96.70;;;;;;4589645;19;20023;-22
2022/11/28 04:23:34;;;;;;;34.23;28.87;;;13.40;96.70;;;;;;4590560;19;20013;-22
2022/11/28 04:25:12;;;;;;;34.92;29.23;;;13.40;96.70;;;;;;4589276;19;20019;-23
2022/11/28 04:26:57;;;;;;;35.17;30.03;;;13.40;96.60;;;;;;4589576;19;20047;-23
2022/11/28 04:28:30;;;;;;;34.17;28.37;;;13.40;96.60;;;;;;4587801;19;20374;-22
2022/11/28 04:30:02;;;;;;;36.40;30.57;;;13.40;96.50;;;;;;4588502;19;20006;-21
2022/11/28 04:31:33;;;;;;;34.95;29.45;;;13.40;96.50;;;;;;4588015;19;20006;-22
2022/11/28 04:33:05;;;;;;;;;;;13.40;96.50;;;;;;4588461;19;20035;-21
2022/11/28 04:34:36;;;;;;;39.10;30.67;;;13.40;96.50;;;;;;4587765;19;20417;-22
2022/11/28 04:36:09;;;;;;;37.10;29.40;;;13.40;96.60;;;;;;4589683;19;20010;-21
2022/11/28 04:37:43;;;;;;;36.03;29.90;;;13.40;96.60;;;;;;4587801;19;20096;-22
2022/11/28 04:39:18;;;;;;;37.43;31.83;;;13.40;96.60;;;;;;4588118;19;20768;-22
2022/11/28 04:41:05;;;;;;;36.77;29.80;;;13.40;96.50;;;;;;4587878;19;20023;-22
2022/11/28 04:42:39;;;;;;;34.63;29.13;;;13.40;96.50;;;;;;4588566;19;20078;-22
2022/11/28 04:44:26;;;;;;;36.17;29.90;;;13.50;96.50;;;;;;4587540;19;20571;-22
2022/11/28 04:46:10;;;;;;;39.57;31.17;;;13.60;96.20;;;;;;4587850;19;20018;-21
2022/11/28 04:47:44;;;;;;;37.00;31.00;;;13.70;96.10;;;;;;4587649;19;20118;-24
2022/11/28 04:49:16;;;;;;;37.97;31.57;;;13.80;96.00;;;;;;4588078;19;20010;-23
2022/11/28 04:50:58;;;;;;;38.38;31.27;;;13.80;95.90;;;;;;4588250;19;20022;-23
2022/11/28 04:53:08;;;;;;;41.60;32.87;;;13.80;95.80;;;;;;4587748;19;20010;-22
2022/11/28 04:55:02;;;;;;;34.90;28.90;;;13.90;95.80;;;;;;4586766;19;20343;-22
2022/11/28 04:56:43;;;;;;;34.23;28.27;;;13.90;95.70;;;;;;4589644;19;20099;-23
2022/11/28 04:58:18;;;;;;;30.87;26.47;;;13.90;95.60;;;;;;4587458;19;20532;-24
2022/11/28 04:59:51;;;;;;;32.83;26.67;;;14.00;95.60;;;;;;4588506;19;20486;-22
2022/11/28 05:01:24;;;;;;;;;;;14.00;95.60;;;;;;4590401;19;20381;-22
2022/11/28 05:02:56;;;;;;;30.30;25.77;;;14.00;95.50;;;;;;4589641;19;20050;-22
2022/11/28 05:04:27;;;;;;;31.10;25.10;;;14.00;95.50;;;;;;4588454;19;20007;-22
2022/11/28 05:05:58;;;;;;;30.70;25.27;;;14.00;95.50;;;;;;4588734;19;20069;-22
2022/11/28 05:07:30;;;;;;;30.95;26.35;;;14.00;95.50;;;;;;4588526;19;20015;-22
2022/11/28 05:09:02;;;;;;;27.70;23.93;;;14.00;95.50;;;;;;4588909;19;20084;-22
2022/11/28 05:10:34;;;;;;;30.17;25.53;;;14.00;95.50;;;;;;4589911;19;20032;-23
2022/11/28 05:12:06;;;;;;;28.35;24.88;;;14.00;95.60;;;;;;4589747;19;19999;-23
2022/11/28 05:13:38;;;;;;;29.70;24.47;;;14.00;95.60;;;;;;4589299;19;20013;-21
2022/11/28 05:15:09;;;;;;;28.27;24.58;;;13.90;95.50;;;;;;4588492;19;20338;-23
2022/11/28 05:16:40;;;;;;;;;;;14.00;95.60;;;;;;4593868;19;20006;-22
2022/11/28 05:18:12;;;;;;;30.48;25.40;;;14.00;95.60;;;;;;4592551;19;19907;-23
2022/11/28 05:19:44;;;;;;;28.47;24.47;;;14.00;95.60;;;;;;4593870;19;20514;-22
2022/11/28 05:21:16;;;;;;;28.83;24.33;;;14.00;95.70;;;;;;4593028;19;20333;-21
2022/11/28 05:22:47;;;;;;;30.33;24.27;;;13.90;95.80;;;;;;4592114;19;20018;-22
2022/11/28 05:24:19;;;;;;;30.63;24.37;;;13.90;95.80;;;;;;4595356;19;20015;-22
2022/11/28 05:25:51;;;;;;;;;;;13.90;95.80;;;;;;4594457;19;20019;-22
2022/11/28 05:27:22;;;;;;;30.87;25.30;;;13.80;95.80;;;;;;4593895;19;19923;-23
2022/11/28 05:28:53;;;;;;;31.70;25.35;;;13.80;95.80;;;;;;4593099;19;20106;-22
2022/11/28 05:30:25;;;;;;;31.33;25.45;;;13.80;95.80;;;;;;4594235;19;20010;-22
2022/11/28 05:31:55;;;;;;;34.15;26.33;;;13.80;95.80;;;;;;4586995;19;20935;-24
2022/11/28 05:33:30;;;;;;;29.88;25.15;;;13.80;95.80;;;;;;4592381;19;20031;-22
2022/11/28 05:35:01;;;;;;;31.60;25.83;;;13.70;95.80;;;;;;4591554;19;20022;-22
2022/11/28 05:36:32;;;;;;;31.08;26.67;;;13.70;95.80;;;;;;4593346;19;20015;-22
2022/11/28 05:38:03;;;;;;;30.75;24.70;;;13.70;95.80;;;;;;4593293;19;20010;-21
2022/11/28 05:39:35;;;;;;;29.67;24.88;;;13.70;95.80;;;;;;4593434;19;20350;-24
2022/11/28 05:41:06;;;;;;;32.03;26.77;;;13.70;95.80;;;;;;4592388;19;20044;-21
2022/11/28 05:42:36;;;;;;;33.80;26.45;;;13.60;96.00;;;;;;4592166;19;20471;-22
2022/11/28 05:44:08;;;;;;;30.67;25.10;;;13.60;95.90;;;;;;4592054;19;20010;-22
2022/11/28 05:45:42;;;;;;;30.25;26.77;;;13.60;95.90;;;;;;4590807;19;20014;-21
2022/11/28 05:47:14;;;;;;;31.73;25.23;;;13.60;95.90;;;;;;4590898;19;20030;-21
2022/11/28 05:48:46;;;;;;;33.43;26.00;;;13.60;95.90;;;;;;4591266;19;20006;-21
2022/11/28 05:50:17;;;;;;;31.70;26.30;;;13.60;95.90;;;;;;4591172;19;20010;-22
2022/11/28 05:51:48;;;;;;;32.17;26.05;;;13.60;96.00;;;;;;4590137;19;20478;-21
2022/11/28 05:53:19;;;;;;;33.40;26.40;;;13.70;96.00;;;;;;4593341;19;20038;-22
2022/11/28 05:54:50;;;;;;;30.00;24.48;;;13.60;96.00;;;;;;4591442;19;20010;-23
2022/11/28 05:56:22;;;;;;;29.08;24.83;;;13.60;96.10;;;;;;4592552;19;20038;-21
2022/11/28 05:57:54;;;;;;;29.10;23.97;;;13.60;96.10;;;;;;4592299;19;20015;-22
2022/11/28 05:59:25;;;;;;;30.65;25.42;;;13.60;96.10;;;;;;4590192;19;20010;-22
2022/11/28 06:00:56;;;;;;;31.65;26.23;;;13.60;96.00;;;;;;4589062;19;20030;-22
2022/11/28 06:02:29;;;;;;;30.48;25.17;;;13.60;96.00;;;;;;4588522;19;20010;-22
2022/11/28 06:04:01;;;;;;;30.93;24.67;;;13.60;95.90;;;;;;4588450;19;20402;-23
2022/11/28 06:05:33;;;;;;;31.27;25.95;;;13.70;95.90;;;;;;4592157;19;20018;-22
2022/11/28 06:07:04;;;;;;;33.05;27.20;;;13.70;95.90;;;;;;4591397;19;20106;-24
2022/11/28 06:08:35;;;;;;;31.80;26.42;;;13.70;95.90;;;;;;4590763;19;20010;-22
2022/11/28 06:10:07;;;;;;;31.83;28.40;;;13.70;95.90;;;;;;4590789;19;20014;-22
2022/11/28 06:11:38;;;;;;;33.57;27.90;;;13.70;95.90;;;;;;4589271;19;20033;-24
2022/11/28 06:13:09;;;;;;;34.47;29.83;;;13.80;95.90;;;;;;4590019;19;20018;-22
2022/11/28 06:14:40;;;;;;;36.80;29.70;;;13.80;95.80;;;;;;4587300;19;21013;-21
2022/11/28 06:16:13;;;;;;;32.40;27.42;;;13.80;95.80;;;;;;4589229;19;20026;-22
2022/11/28 06:17:44;;;;;;;32.13;27.57;;;13.80;95.90;;;;;;4588344;19;20504;-22
2022/11/28 06:19:15;;;;;;;30.67;27.00;;;13.80;95.90;;;;;;4588486;19;20089;-21
2022/11/28 06:20:47;;;;;;;31.92;27.10;;;13.80;95.80;;;;;;4590345;19;20038;-22
2022/11/28 06:22:18;;;;;;;32.63;27.67;;;13.70;95.80;;;;;;4589391;19;20014;-24
2022/11/28 06:23:49;;;;;;;31.10;27.08;;;13.70;95.90;;;;;;4589742;19;20027;-21
2022/11/28 06:25:21;;;;;;;30.30;25.05;;;13.70;95.80;;;;;;4589249;19;20019;-22
2022/11/28 06:26:52;;;;;;;30.20;25.88;;;13.70;95.90;;;;;;4589196;19;20022;-24
2022/11/28 06:28:23;;;;;;;33.60;26.08;;;13.70;95.90;;;;;;4589900;19;20014;-22
2022/11/28 06:29:55;;;;;;;31.75;26.65;;;13.70;95.90;;;;;;4589282;19;20015;-24
2022/11/28 06:31:28;;;;;;;33.08;28.55;;;13.70;95.90;;;;;;4589599;19;20014;-22
2022/11/28 06:32:59;;;;;;;32.73;27.63;;;13.70;95.90;;;;;;4590402;19;20018;-22
2022/11/28 06:34:31;;;;;;;32.53;28.27;;;13.70;95.80;;;;;;4588419;19;20019;-22
2022/11/28 06:36:03;;;;;;;32.17;27.63;;;13.70;95.80;;;;;;4590016;19;20074;-23
2022/11/28 06:37:34;;;;;;;33.43;27.53;;;13.70;95.80;;;;;;4591728;19;20085;-22
2022/11/28 06:39:05;;;;;;;33.90;28.23;;;13.70;95.70;;;;;;4592735;19;20022;-22
2022/11/28 06:40:39;;;;;;;30.98;26.35;;;13.70;95.70;;;;;;4591882;19;20043;-23
2022/11/28 06:42:10;;;;;;;33.50;28.03;;;13.70;95.80;;;;;;4588693;19;20038;-21
2022/11/28 06:43:42;;;;;;;34.55;27.48;;;13.70;95.80;;;;;;4590241;19;20011;-22
2022/11/28 06:45:13;;;;;;;33.75;27.90;;;13.70;95.80;;;;;;4590560;19;20044;-24
2022/11/28 06:46:44;;;;;;;34.22;28.30;;;13.70;95.80;;;;;;4590372;19;20021;-22
2022/11/28 06:48:15;;;;;;;33.05;26.70;;;13.70;95.80;;;;;;4591814;19;20011;-21
2022/11/28 06:49:47;;;;;;;30.55;26.25;;;13.60;95.80;;;;;;4589843;19;20483;-22
2022/11/28 06:51:19;;;;;;;30.90;25.80;;;13.70;95.80;;;;;;4590970;19;20018;-23
2022/11/28 06:52:50;;;;;;;;;;;13.80;95.80;;;;;;4591275;19;20082;-22
2022/11/28 06:54:22;;;;;;;30.88;26.88;;;13.70;95.80;;;;;;4590522;19;19936;-23
2022/11/28 06:55:53;;;;;;;30.85;26.70;;;13.70;95.70;;;;;;4591015;19;20007;-22
2022/11/28 06:57:25;;;;;;;31.58;26.58;;;13.70;95.80;;;;;;4590389;19;20011;-22
2022/11/28 06:58:57;;;;;;;31.40;26.42;;;13.60;95.80;;;;;;4591846;19;20007;-22
2022/11/28 07:00:28;;;;;;;32.20;26.63;;;13.60;95.90;;;;;;4590488;19;20018;-22
2022/11/28 07:02:02;;;;;;;32.72;27.33;;;13.60;95.90;;;;;;4590033;19;20014;-23
2022/11/28 07:03:33;;;;;;;32.20;26.47;;;13.60;95.90;;;;;;4591361;19;20018;-22
2022/11/28 07:05:04;;;;;;;29.10;25.80;;;13.60;95.90;;;;;;4589945;19;20017;-21
2022/11/28 07:06:36;;;;;;;;;;;13.60;95.90;;;;;;4591434;19;20027;-21
2022/11/28 07:08:07;;;;;;;31.53;26.73;;;13.60;95.90;;;;;;4591380;19;20338;-22
2022/11/28 07:09:38;;;;;;;30.02;26.65;;;13.60;95.90;;;;;;4591776;19;20042;-22
2022/11/28 07:11:15;;;;;;;31.75;28.33;;;13.60;95.90;;;;;;4591376;19;20488;-22
2022/11/28 07:12:46;;;;;;;32.47;28.43;;;13.60;96.00;;;;;;4590508;19;20021;-23
2022/11/28 07:14:17;;;;;;;32.08;27.23;;;13.60;96.10;;;;;;4589344;19;20854;-23
2022/11/28 07:15:52;;;;;;;33.22;28.55;;;13.60;96.10;;;;;;4590751;19;20358;-21
2022/11/28 07:17:23;;;;;;;32.53;27.67;;;13.60;96.10;;;;;;4589661;19;20006;-23
2022/11/28 07:18:55;;;;;;;31.17;26.65;;;13.60;96.10;;;;;;4590775;19;20070;-22
2022/11/28 07:20:26;;;;;;;31.47;25.67;;;13.60;96.10;;;;;;4590689;19;20006;-22
2022/11/28 07:21:57;;;;;;;32.85;27.27;;;13.60;96.20;;;;;;4589955;19;20106;-22
2022/11/28 07:23:29;;;;;;;30.83;26.83;;;13.60;96.20;;;;;;4592313;19;20038;-23
2022/11/28 07:25:00;;;;;;;;;;;13.60;96.20;;;;;;4591569;19;20010;-22
2022/11/28 07:26:31;;;;;;;32.63;26.77;;;13.60;96.20;;;;;;4590271;19;19911;-24
2022/11/28 07:28:03;;;;;;;34.05;28.02;;;13.60;96.20;;;;;;4591341;19;20019;-22
2022/11/28 07:29:37;;;;;;;31.70;26.77;;;13.70;96.20;;;;;;4590991;19;20366;-23
2022/11/28 07:31:12;;;;;;;33.60;28.43;;;13.80;96.10;;;;;;4590835;19;20010;-22
2022/11/28 07:32:43;;;;;;;32.87;27.57;;;13.80;96.10;;;;;;4590590;19;20014;-25
2022/11/28 07:34:15;;;;;;;30.95;26.42;;;13.80;96.00;;;;;;4589089;19;20094;-22
2022/11/28 07:35:47;;;;;;;32.97;27.92;;;13.80;96.00;;;;;;4589561;19;20011;-23
2022/11/28 07:37:19;;;;;;;32.13;26.97;;;13.80;96.00;;;;;;4590059;19;20487;-22
2022/11/28 07:38:55;;;;;;;;;;;13.80;96.00;;;;;;4589153;19;20058;-21
2022/11/28 07:40:26;;;;;;;34.00;26.93;;;13.80;96.10;;;;;;4589940;19;20234;-24
2022/11/28 07:41:57;;;;;;;29.92;25.48;;;13.80;96.10;;;;;;4588568;19;20021;-22
2022/11/28 07:43:29;;;;;;;31.75;26.20;;;13.80;96.20;;;;;;4592645;19;20035;-23
2022/11/28 07:45:00;;;;;;;30.95;26.73;;;13.80;96.30;;;;;;4589187;19;20022;-22
2022/11/28 07:46:31;;;;;;;34.10;29.00;;;13.80;96.30;;;;;;4590343;19;20025;-22
2022/11/28 07:48:03;;;;;;;35.00;27.77;;;13.80;96.40;;;;;;4591429;19;20022;-22
2022/11/28 07:49:34;;;;;;;35.00;27.52;;;13.80;96.50;;;;;;4589195;19;20066;-23
2022/11/28 07:51:13;;;;;;;33.78;28.58;;;13.80;96.50;;;;;;4589809;19;20472;-22
2022/11/28 07:52:48;;;;;;;35.50;30.90;;;13.80;96.60;;;;;;4589082;19;20017;-23
2022/11/28 07:54:22;;;;;;;34.83;28.43;;;13.70;96.60;;;;;;4588718;19;20050;-22
2022/11/28 07:55:53;;;;;;;33.95;29.98;;;13.70;96.70;;;;;;4590316;19;20003;-23
2022/11/28 07:57:25;;;;;;;;;;;13.70;96.70;;;;;;4590226;19;20027;-22
2022/11/28 07:58:56;;;;;;;39.20;30.37;;;13.70;96.70;;;;;;4589494;19;19917;-23
2022/11/28 08:00:27;;;;;;;34.70;30.17;;;13.70;96.80;;;;;;4589652;19;20021;-22
2022/11/28 08:01:58;;;;;;;38.83;32.13;;;13.70;96.80;;;;;;4588244;19;20018;-24
2022/11/28 08:03:29;;;;;;;38.97;32.78;;;13.70;96.80;;;;;;4592396;19;20021;-20
2022/11/28 08:05:00;;;;;;;42.38;34.65;;;13.70;96.90;;;;;;4589333;19;20503;-22
2022/11/28 08:06:35;;;;;;;44.45;35.60;;;13.70;96.90;;;;;;4590446;19;20483;-23
2022/11/28 08:08:06;;;;;;;45.23;35.33;;;13.70;97.00;;;;;;4588647;19;20006;-22
2022/11/28 08:09:37;;;;;;;47.90;37.15;;;13.70;97.00;;;;;;4589009;19;20011;-22